createdAt,value
2022-10-15T00:00:07.235Z,100629.47
2022-10-15T00:00:39.865Z,100631.91
2022-10-15T00:01:15.379Z,100629.03
2022-10-15T00:01:47.331Z,100624.53
2022-10-15T00:02:19.502Z,100627.78
2022-10-15T00:02:51.439Z,100627.41
2022-10-15T00:03:23.234Z,100625.97
2022-10-15T00:03:55.273Z,100629.50
2022-10-15T00:04:27.164Z,100629.50
2022-10-15T00:04:59.157Z,100622.34
2022-10-15T00:05:31.030Z,100618.47
2022-10-15T00:06:10.239Z,100621.31
2022-10-15T00:10:51.128Z,100632.56
2022-10-15T00:11:26.114Z,100629.06
2022-10-15T00:11:57.899Z,100623.75
2022-10-15T00:12:29.601Z,100629.69
2022-10-15T00:13:34.061Z,100628.66
2022-10-15T00:14:05.810Z,100633.97
2022-10-15T00:14:37.585Z,100635.00
2022-10-15T00:15:10.853Z,100626.22
2022-10-15T00:15:42.673Z,100631.97
2022-10-15T00:16:20.053Z,100627.88
2022-10-15T00:16:51.879Z,100629.31
2022-10-15T00:17:23.812Z,100625.84
2022-10-15T00:17:56.111Z,100621.13
2022-10-15T00:18:28.042Z,100624.59
2022-10-15T00:19:00.288Z,100618.88
2022-10-15T00:19:32.160Z,100617.88
2022-10-15T00:20:05.996Z,100627.47
2022-10-15T00:20:41.848Z,100615.81
2022-10-15T00:21:15.590Z,100619.06
2022-10-15T00:21:47.502Z,100618.47
2022-10-15T00:22:19.566Z,100616.63
2022-10-15T00:22:51.460Z,100607.84
2022-10-15T00:23:23.526Z,100620.91
2022-10-15T00:23:55.482Z,100616.41
2022-10-15T00:24:27.656Z,100612.97
2022-10-15T00:25:00.550Z,100610.72
2022-10-15T00:25:32.243Z,100611.09
2022-10-15T00:26:06.824Z,100613.75
2022-10-15T00:26:38.677Z,100611.09
2022-10-15T00:27:10.486Z,100621.31
2022-10-15T00:27:42.335Z,100614.78
2022-10-15T00:28:14.209Z,100619.28
2022-10-15T00:28:46.562Z,100621.94
2022-10-15T00:29:18.635Z,100614.38
2022-10-15T00:29:50.397Z,100614.56
2022-10-15T00:30:22.241Z,100621.94
2022-10-15T00:31:01.149Z,100616.41
2022-10-15T00:31:33.402Z,100620.09
2022-10-15T00:32:05.407Z,100612.75
2022-10-15T00:32:37.343Z,100611.09
2022-10-15T00:33:11.218Z,100615.19
2022-10-15T00:33:44.132Z,100620.06
2022-10-15T00:34:17.073Z,100622.50
2022-10-15T00:34:48.957Z,100619.66
2022-10-15T00:35:20.763Z,100615.38
2022-10-15T00:36:03.321Z,100615.19
2022-10-15T00:36:36.952Z,100621.09
2022-10-15T00:37:09.279Z,100610.88
2022-10-15T00:37:41.440Z,100610.44
2022-10-15T00:38:13.566Z,100614.50
2022-10-15T00:38:46.032Z,100614.09
2022-10-15T00:39:18.724Z,100614.69
2022-10-15T00:39:51.355Z,100612.66
2022-10-15T00:40:23.509Z,100608.78
2022-10-15T00:40:55.940Z,100619.41
2022-10-15T00:41:31.598Z,100614.88
2022-10-15T00:42:03.584Z,100613.84
2022-10-15T00:42:35.441Z,100620.00
2022-10-15T00:43:10.989Z,100625.09
2022-10-15T00:43:51.643Z,100623.66
2022-10-15T00:44:26.819Z,100623.81
2022-10-15T00:44:59.696Z,100627.25
2022-10-15T00:45:31.551Z,100623.13
2022-10-15T00:46:04.288Z,100629.06
2022-10-15T00:46:41.194Z,100630.28
2022-10-15T00:47:21.325Z,100631.06
2022-10-15T00:47:53.391Z,100627.59
2022-10-15T00:48:25.517Z,100624.28
2022-10-15T00:49:08.636Z,100627.53
2022-10-15T00:49:56.280Z,100629.75
2022-10-15T00:50:28.241Z,100628.69
2022-10-15T00:51:04.925Z,100636.88
2022-10-15T00:51:41.610Z,100622.97
2022-10-15T00:52:45.493Z,100634.22
2022-10-15T00:53:17.499Z,100628.09
2022-10-15T00:53:50.675Z,100629.50
2022-10-15T00:54:24.094Z,100623.16
2022-10-15T00:55:00.525Z,100625.41
2022-10-15T00:55:37.493Z,100629.09
2022-10-15T00:56:09.584Z,100625.81
2022-10-15T00:56:44.208Z,100630.31
2022-10-15T00:57:16.370Z,100625.63
2022-10-15T00:57:49.958Z,100624.97
2022-10-15T00:58:28.064Z,100621.28
2022-10-15T00:59:00.855Z,100628.22
2022-10-15T00:59:34.954Z,100619.44
2022-10-15T01:00:10.514Z,100620.03
2022-10-15T01:00:44.551Z,100619.16
2022-10-15T01:01:16.838Z,100624.88
2022-10-15T01:01:48.942Z,100627.75
2022-10-15T01:02:21.842Z,100615.84
2022-10-15T01:02:54.842Z,100617.91
2022-10-15T01:03:26.754Z,100610.97
2022-10-15T01:03:59.010Z,100613.19
2022-10-15T01:04:31.511Z,100622.19
2022-10-15T01:05:04.426Z,100612.59
2022-10-15T01:05:37.683Z,100625.69
2022-10-15T01:06:09.552Z,100614.22
2022-10-15T01:06:41.377Z,100615.03
2022-10-15T01:07:14.279Z,100615.84
2022-10-15T01:07:46.230Z,100610.97
2022-10-15T01:11:50.273Z,100602.41
2022-10-15T01:12:40.339Z,100612.81
2022-10-15T01:13:39.848Z,100608.53
2022-10-15T01:14:44.887Z,100596.63
2022-10-15T01:15:21.224Z,100600.38
2022-10-15T01:16:00.730Z,100606.53
2022-10-15T01:16:53.957Z,100603.84
2022-10-15T01:17:47.953Z,100599.13
2022-10-15T01:18:32.949Z,100606.25
2022-10-15T01:19:11.995Z,100604.03
2022-10-15T01:20:03.984Z,100601.78
2022-10-15T01:20:51.544Z,100604.47
2022-10-15T01:21:33.837Z,100601.19
2022-10-15T01:22:10.598Z,100603.84
2022-10-15T01:23:07.453Z,100605.31
2022-10-15T01:23:46.852Z,100599.22
2022-10-15T01:24:36.756Z,100599.22
2022-10-15T01:25:23.952Z,100600.84
2022-10-15T01:26:25.889Z,100603.31
2022-10-15T01:27:54.275Z,100598.84
2022-10-15T01:28:43.265Z,100598.88
2022-10-15T01:29:42.491Z,100596.22
2022-10-15T01:30:32.610Z,100605.03
2022-10-15T01:31:16.243Z,100596.41
2022-10-15T01:32:04.112Z,100601.72
2022-10-15T01:32:55.866Z,100597.63
2022-10-15T01:33:45.528Z,100597.25
2022-10-15T01:34:27.491Z,100603.38
2022-10-15T01:35:14.036Z,100593.56
2022-10-15T01:35:49.141Z,100600.53
2022-10-15T01:40:34.830Z,100595.28
2022-10-15T01:41:10.808Z,100594.69
2022-10-15T01:41:49.399Z,100594.47
2022-10-15T01:42:33.512Z,100592.63
2022-10-15T01:43:13.561Z,100597.75
2022-10-15T01:44:05.525Z,100605.13
2022-10-15T01:44:54.936Z,100595.72
2022-10-15T01:45:51.992Z,100599.81
2022-10-15T01:46:51.237Z,100595.91
2022-10-15T01:47:36.235Z,100591.41
2022-10-15T01:48:10.793Z,100595.31
2022-10-15T01:48:43.196Z,100585.09
2022-10-15T01:49:21.443Z,100594.06
2022-10-15T01:49:54.250Z,100600.03
2022-10-15T01:50:27.964Z,100592.44
2022-10-15T01:51:04.476Z,100599.38
2022-10-15T01:51:38.419Z,100590.59
2022-10-15T01:52:15.376Z,100598.38
2022-10-15T01:52:48.284Z,100598.97
2022-10-15T01:53:26.795Z,100604.31
2022-10-15T01:53:59.864Z,100600.63
2022-10-15T01:54:31.691Z,100600.63
2022-10-15T01:55:06.363Z,100587.53
2022-10-15T01:55:42.728Z,100594.06
2022-10-15T01:56:19.398Z,100596.72
2022-10-15T01:56:52.091Z,100593.25
2022-10-15T01:57:28.045Z,100594.28
2022-10-15T01:58:00.887Z,100589.59
2022-10-15T01:58:33.207Z,100589.59
2022-10-15T01:59:05.697Z,100594.47
2022-10-15T01:59:37.673Z,100585.69
2022-10-15T02:00:09.893Z,100593.66
2022-10-15T02:05:03.671Z,100587.13
2022-10-15T02:05:49.001Z,100583.44
2022-10-15T02:06:34.828Z,100583.44
2022-10-15T02:07:07.561Z,100578.13
2022-10-15T02:07:58.052Z,100581.41
2022-10-15T02:08:56.519Z,100576.91
2022-10-15T02:09:50.366Z,100576.69
2022-10-15T02:10:42.262Z,100578.75
2022-10-15T02:11:15.814Z,100570.78
2022-10-15T02:12:06.026Z,100578.13
2022-10-15T02:12:48.356Z,100573.25
2022-10-15T02:13:29.004Z,100576.50
2022-10-15T02:14:10.923Z,100573.66
2022-10-15T02:15:08.104Z,100571.63
2022-10-15T02:15:56.528Z,100572.44
2022-10-15T02:16:39.894Z,100569.56
2022-10-15T02:17:12.046Z,100578.97
2022-10-15T02:17:48.349Z,100578.78
2022-10-15T02:18:30.154Z,100576.94
2022-10-15T02:19:19.088Z,100580.19
2022-10-15T02:20:02.048Z,100575.91
2022-10-15T02:20:54.412Z,100580.19
2022-10-15T02:21:55.426Z,100578.13
2022-10-15T02:22:32.916Z,100578.13
2022-10-15T02:23:11.285Z,100577.94
2022-10-15T02:24:09.285Z,100581.41
2022-10-15T02:24:54.685Z,100574.47
2022-10-15T02:25:28.511Z,100577.13
2022-10-15T02:26:00.402Z,100579.16
2022-10-15T02:26:33.956Z,100572.00
2022-10-15T02:27:06.607Z,100577.94
2022-10-15T02:27:41.696Z,100582.22
2022-10-15T02:28:15.201Z,100573.22
2022-10-15T02:28:52.889Z,100574.03
2022-10-15T02:29:27.808Z,100584.66
2022-10-15T02:30:02.206Z,100582.00
2022-10-15T02:33:59.620Z,100570.13
2022-10-15T02:34:32.984Z,100573.22
2022-10-15T02:35:07.378Z,100575.06
2022-10-15T02:35:43.494Z,100568.72
2022-10-15T02:36:15.475Z,100562.38
2022-10-15T02:36:47.832Z,100561.34
2022-10-15T02:37:21.669Z,100562.16
2022-10-15T02:37:55.115Z,100563.78
2022-10-15T02:38:28.152Z,100561.13
2022-10-15T02:39:01.410Z,100571.53
2022-10-15T02:39:34.122Z,100567.03
2022-10-15T02:40:06.223Z,100569.69
2022-10-15T02:40:39.026Z,100560.91
2022-10-15T02:41:12.151Z,100571.31
2022-10-15T02:41:44.229Z,100559.44
2022-10-15T02:42:18.455Z,100564.53
2022-10-15T02:42:52.972Z,100562.09
2022-10-15T02:43:25.043Z,100564.59
2022-10-15T02:43:56.845Z,100563.56
2022-10-15T02:44:28.955Z,100562.53
2022-10-15T02:45:00.748Z,100562.97
2022-10-15T02:45:32.703Z,100560.91
2022-10-15T02:46:05.891Z,100564.00
2022-10-15T02:46:37.605Z,100564.00
2022-10-15T02:47:10.415Z,100564.59
2022-10-15T02:47:44.077Z,100561.94
2022-10-15T02:48:15.938Z,100560.69
2022-10-15T02:48:47.703Z,100553.97
2022-10-15T02:49:22.670Z,100563.56
2022-10-15T02:49:55.455Z,100560.91
2022-10-15T02:50:27.279Z,100560.47
2022-10-15T02:50:59.078Z,100562.53
2022-10-15T02:51:35.208Z,100563.78
2022-10-15T02:52:07.056Z,100560.91
2022-10-15T02:52:38.904Z,100559.88
2022-10-15T02:53:10.657Z,100562.53
2022-10-15T02:53:43.556Z,100563.34
2022-10-15T02:54:15.176Z,100564.16
2022-10-15T02:54:47.002Z,100559.66
2022-10-15T02:55:18.880Z,100554.34
2022-10-15T02:55:50.666Z,100555.16
2022-10-15T02:56:22.872Z,100558.41
2022-10-15T02:56:54.587Z,100556.78
2022-10-15T02:57:26.652Z,100559.66
2022-10-15T02:57:58.619Z,100546.97
2022-10-15T02:58:30.990Z,100556.78
2022-10-15T02:59:03.391Z,100557.38
2022-10-15T02:59:35.756Z,100549.41
2022-10-15T03:00:08.281Z,100550.22
2022-10-15T03:00:40.508Z,100551.25
2022-10-15T03:01:12.934Z,100549.41
2022-10-15T03:01:44.884Z,100554.72
2022-10-15T03:02:19.346Z,100553.09
2022-10-15T03:02:52.117Z,100547.34
2022-10-15T03:03:24.685Z,100549.41
2022-10-15T03:03:57.603Z,100545.72
2022-10-15T03:04:30.251Z,100542.03
2022-10-15T03:05:03.407Z,100542.84
2022-10-15T03:05:35.680Z,100549.56
2022-10-15T03:06:07.616Z,100545.28
2022-10-15T03:06:39.416Z,100544.47
2022-10-15T03:07:11.498Z,100542.84
2022-10-15T03:07:43.774Z,100547.34
2022-10-15T03:08:15.642Z,100550.22
2022-10-15T03:08:47.356Z,100543.28
2022-10-15T03:09:19.249Z,100544.09
2022-10-15T03:09:52.115Z,100542.03
2022-10-15T03:10:23.977Z,100540.19
2022-10-15T03:10:55.617Z,100542.84
2022-10-15T03:11:27.244Z,100542.03
2022-10-15T03:11:58.928Z,100539.59
2022-10-15T03:12:31.165Z,100542.03
2022-10-15T03:13:04.639Z,100541.22
2022-10-15T03:13:39.644Z,100540.84
2022-10-15T03:14:11.311Z,100541.88
2022-10-15T03:14:43.613Z,100538.78
2022-10-15T03:15:15.573Z,100543.06
2022-10-15T03:15:49.649Z,100538.56
2022-10-15T03:16:21.525Z,100543.66
2022-10-15T03:16:53.318Z,100542.63
2022-10-15T03:17:25.334Z,100545.06
2022-10-15T03:17:57.285Z,100544.25
2022-10-15T03:18:28.990Z,100546.69
2022-10-15T03:19:00.698Z,100545.88
2022-10-15T03:19:32.830Z,100544.84
2022-10-15T03:20:05.327Z,100542.78
2022-10-15T03:20:40.904Z,100544.41
2022-10-15T03:24:38.551Z,100540.72
2022-10-15T03:25:10.652Z,100537.03
2022-10-15T03:25:42.977Z,100535.41
2022-10-15T03:26:22.290Z,100532.16
2022-10-15T03:26:55.239Z,100539.91
2022-10-15T03:27:27.458Z,100544.41
2022-10-15T03:27:59.208Z,100537.47
2022-10-15T03:28:39.234Z,100537.47
2022-10-15T03:29:11.281Z,100539.09
2022-10-15T03:29:48.718Z,100528.25
2022-10-15T03:30:20.469Z,100537.88
2022-10-15T03:30:52.369Z,100531.72
2022-10-15T03:31:24.212Z,100540.13
2022-10-15T03:31:56.162Z,100533.78
2022-10-15T03:32:27.996Z,100531.72
2022-10-15T03:32:59.644Z,100532.56
2022-10-15T03:33:31.879Z,100532.56
2022-10-15T03:34:03.880Z,100528.44
2022-10-15T03:34:35.917Z,100530.09
2022-10-15T03:35:08.052Z,100528.44
2022-10-15T03:35:40.069Z,100535.03
2022-10-15T03:36:12.702Z,100526.00
2022-10-15T03:36:44.368Z,100523.56
2022-10-15T03:37:16.908Z,100528.28
2022-10-15T03:37:48.787Z,100528.06
2022-10-15T03:38:21.238Z,100516.63
2022-10-15T03:38:55.305Z,100511.31
2022-10-15T03:39:28.154Z,100517.22
2022-10-15T03:40:04.841Z,100520.47
2022-10-15T03:40:36.767Z,100518.03
2022-10-15T03:41:24.297Z,100519.13
2022-10-15T03:41:56.376Z,100519.13
2022-10-15T03:42:36.138Z,100512.19
2022-10-15T03:43:09.114Z,100516.31
2022-10-15T03:43:42.890Z,100513.06
2022-10-15T03:44:15.503Z,100508.78
2022-10-15T03:44:50.488Z,100515.13
2022-10-15T03:45:24.989Z,100509.81
2022-10-15T03:46:09.724Z,100509.81
2022-10-15T03:50:29.473Z,100509.03
2022-10-15T03:51:05.265Z,100513.13
2022-10-15T03:51:37.124Z,100511.50
2022-10-15T03:52:14.832Z,100510.31
2022-10-15T03:57:01.623Z,100511.25
2022-10-15T03:57:38.772Z,100507.16
2022-10-15T03:58:10.957Z,100507.56
2022-10-15T03:58:50.507Z,100507.41
2022-10-15T03:59:22.450Z,100509.25
2022-10-15T04:00:01.625Z,100506.00
2022-10-15T04:00:45.125Z,100506.81
2022-10-15T04:01:17.896Z,100504.16
2022-10-15T04:01:49.620Z,100503.13
2022-10-15T04:02:22.914Z,100501.75
2022-10-15T04:02:54.880Z,100504.41
2022-10-15T04:03:30.692Z,100502.34
2022-10-15T04:04:04.469Z,100498.06
2022-10-15T04:04:36.314Z,100492.16
2022-10-15T04:05:08.184Z,100498.50
2022-10-15T04:05:40.409Z,100499.53
2022-10-15T04:06:14.998Z,100498.94
2022-10-15T04:06:47.934Z,100499.97
2022-10-15T04:07:21.610Z,100506.50
2022-10-15T04:07:53.335Z,100504.06
2022-10-15T04:08:26.258Z,100511.41
2022-10-15T04:08:57.972Z,100511.41
2022-10-15T04:09:30.441Z,100508.16
2022-10-15T04:10:22.218Z,100494.25
2022-10-15T04:10:54.552Z,100500.78
2022-10-15T04:11:26.228Z,100495.91
2022-10-15T04:12:06.426Z,100510.19
2022-10-15T04:16:00.720Z,100497.81
2022-10-15T04:16:33.433Z,100512.34
2022-10-15T04:17:12.284Z,100507.84
2022-10-15T04:17:44.246Z,100509.06
2022-10-15T04:18:16.848Z,100501.31
2022-10-15T04:18:49.308Z,100511.53
2022-10-15T04:19:20.899Z,100503.34
2022-10-15T04:20:03.203Z,100501.72
2022-10-15T04:20:34.796Z,100511.09
2022-10-15T04:21:16.536Z,100506.00
2022-10-15T04:21:52.979Z,100504.97
2022-10-15T04:22:43.769Z,100501.72
2022-10-15T04:23:16.688Z,100505.00
2022-10-15T04:24:03.363Z,100506.63
2022-10-15T04:24:40.332Z,100503.00
2022-10-15T04:25:12.181Z,100507.28
2022-10-15T04:25:44.345Z,100506.47
2022-10-15T04:26:16.276Z,100513.59
2022-10-15T04:26:47.931Z,100505.84
2022-10-15T04:27:19.599Z,100506.66
2022-10-15T04:27:53.607Z,100511.78
2022-10-15T04:28:25.317Z,100514.41
2022-10-15T04:28:57.116Z,100511.97
2022-10-15T04:29:29.077Z,100510.75
2022-10-15T04:30:14.052Z,100514.41
2022-10-15T04:30:58.074Z,100511.56
2022-10-15T04:31:29.947Z,100511.34
2022-10-15T04:32:02.523Z,100510.94
2022-10-15T04:32:34.247Z,100517.28
2022-10-15T04:33:05.857Z,100509.13
2022-10-15T04:33:37.763Z,100509.13
2022-10-15T04:34:09.575Z,100509.13
2022-10-15T04:34:41.720Z,100513.81
2022-10-15T04:35:14.074Z,100514.84
2022-10-15T04:36:05.758Z,100509.13
2022-10-15T04:37:03.481Z,100516.06
2022-10-15T04:37:35.552Z,100514.81
2022-10-15T04:38:07.186Z,100518.09
2022-10-15T04:39:08.573Z,100519.72
2022-10-15T04:39:47.494Z,100517.69
2022-10-15T04:40:19.506Z,100524.19
2022-10-15T04:41:00.511Z,100527.88
2022-10-15T04:41:36.483Z,100521.53
2022-10-15T04:42:11.863Z,100527.06
2022-10-15T04:42:43.512Z,100526.03
2022-10-15T04:43:15.358Z,100530.31
2022-10-15T04:43:47.234Z,100525.00
2022-10-15T04:44:19.055Z,100521.31
2022-10-15T04:44:57.932Z,100526.22
2022-10-15T04:45:29.503Z,100524.16
2022-10-15T04:46:03.842Z,100523.72
2022-10-15T04:46:35.587Z,100518.63
2022-10-15T04:47:15.360Z,100522.50
2022-10-15T04:47:54.848Z,100526.78
2022-10-15T04:48:31.342Z,100524.94
2022-10-15T04:49:03.384Z,100518.38
2022-10-15T04:49:35.007Z,100522.66
2022-10-15T04:50:12.824Z,100523.06
2022-10-15T04:54:34.680Z,100527.94
2022-10-15T04:55:09.083Z,100525.06
2022-10-15T04:59:21.655Z,100517.84
2022-10-15T05:00:22.356Z,100524.75
2022-10-15T05:01:30.844Z,100521.47
2022-10-15T05:02:11.605Z,100526.38
2022-10-15T05:06:05.918Z,100517.53
2022-10-15T05:06:38.178Z,100520.19
2022-10-15T05:07:21.165Z,100519.75
2022-10-15T05:07:54.068Z,100528.31
2022-10-15T05:08:26.349Z,100517.69
2022-10-15T05:09:20.985Z,100520.50
2022-10-15T05:09:55.019Z,100517.84
2022-10-15T05:10:26.853Z,100522.16
2022-10-15T05:11:06.181Z,100528.06
2022-10-15T05:11:38.301Z,100526.22
2022-10-15T05:12:16.045Z,100523.34
2022-10-15T05:12:49.385Z,100527.63
2022-10-15T05:13:32.275Z,100519.66
2022-10-15T05:17:25.019Z,100531.50
2022-10-15T05:17:59.058Z,100528.84
2022-10-15T05:18:39.140Z,100524.34
2022-10-15T05:19:11.173Z,100521.47
2022-10-15T05:19:43.869Z,100524.13
2022-10-15T05:20:22.434Z,100521.25
2022-10-15T05:20:54.125Z,100525.31
2022-10-15T05:21:27.415Z,100526.50
2022-10-15T05:26:26.114Z,100525.19
2022-10-15T05:26:57.944Z,100510.88
2022-10-15T05:27:32.007Z,100513.53
2022-10-15T05:28:05.235Z,100512.50
2022-10-15T05:28:37.370Z,100521.28
2022-10-15T05:29:09.604Z,100517.81
2022-10-15T05:29:41.457Z,100518.63
2022-10-15T05:30:14.730Z,100519.44
2022-10-15T05:30:52.757Z,100516.38
2022-10-15T05:31:26.271Z,100519.25
2022-10-15T05:32:07.015Z,100519.44
2022-10-15T05:32:38.820Z,100519.44
2022-10-15T05:33:15.474Z,100513.31
2022-10-15T05:33:48.594Z,100514.13
2022-10-15T05:34:20.627Z,100511.47
2022-10-15T05:35:00.206Z,100513.09
2022-10-15T05:35:44.249Z,100515.75
2022-10-15T05:36:24.458Z,100518.22
2022-10-15T05:37:00.008Z,100512.91
2022-10-15T05:37:31.817Z,100516.38
2022-10-15T05:38:04.792Z,100515.34
2022-10-15T05:38:36.838Z,100507.97
2022-10-15T05:39:10.685Z,100516.53
2022-10-15T05:39:46.535Z,100510.78
2022-10-15T05:40:21.178Z,100505.47
2022-10-15T05:41:06.272Z,100503.84
2022-10-15T05:41:38.051Z,100506.06
2022-10-15T05:42:10.468Z,100512.41
2022-10-15T05:43:25.619Z,100506.66
2022-10-15T05:43:58.639Z,100510.34
2022-10-15T05:44:33.273Z,100509.09
2022-10-15T05:45:05.297Z,100515.22
2022-10-15T05:45:36.903Z,100512.34
2022-10-15T05:46:10.715Z,100511.53
2022-10-15T05:46:42.707Z,100513.16
2022-10-15T05:47:18.150Z,100512.13
2022-10-15T05:52:13.822Z,100511.81
2022-10-15T05:53:07.976Z,100515.09
2022-10-15T05:53:46.561Z,100517.31
2022-10-15T05:54:18.181Z,100521.84
2022-10-15T05:54:49.868Z,100517.31
2022-10-15T05:55:22.530Z,100524.28
2022-10-15T05:55:54.373Z,100517.09
2022-10-15T05:56:31.080Z,100524.88
2022-10-15T05:57:02.812Z,100524.66
2022-10-15T05:57:34.538Z,100517.47
2022-10-15T05:58:08.132Z,100521.75
2022-10-15T05:58:40.693Z,100520.72
2022-10-15T05:59:13.316Z,100522.34
2022-10-15T05:59:45.642Z,100525.00
2022-10-15T06:00:18.222Z,100521.31
2022-10-15T06:00:58.300Z,100520.28
2022-10-15T06:01:29.967Z,100525.59
2022-10-15T06:02:01.723Z,100526.19
2022-10-15T06:02:33.754Z,100522.72
2022-10-15T06:03:06.164Z,100519.84
2022-10-15T06:03:38.638Z,100530.25
2022-10-15T06:04:10.416Z,100527.97
2022-10-15T06:04:43.775Z,100529.59
2022-10-15T06:05:15.665Z,100528.19
2022-10-15T06:05:47.322Z,100533.06
2022-10-15T06:06:21.675Z,100531.22
2022-10-15T06:06:53.302Z,100531.22
2022-10-15T06:07:25.128Z,100537.13
2022-10-15T06:07:57.497Z,100536.94
2022-10-15T06:08:30.101Z,100541.59
2022-10-15T06:09:04.482Z,100536.28
2022-10-15T06:09:36.112Z,100545.91
2022-10-15T06:10:07.916Z,100540.16
2022-10-15T06:10:39.997Z,100541.34
2022-10-15T06:11:11.702Z,100529.06
2022-10-15T06:11:43.257Z,100540.75
2022-10-15T06:12:15.528Z,100544.22
2022-10-15T06:12:50.811Z,100539.25
2022-10-15T06:13:22.795Z,100532.31
2022-10-15T06:13:54.534Z,100530.25
2022-10-15T06:14:26.824Z,100531.88
2022-10-15T06:14:58.322Z,100527.34
2022-10-15T06:15:29.979Z,100535.13
2022-10-15T06:16:03.418Z,100530.81
2022-10-15T06:16:34.961Z,100535.13
2022-10-15T06:17:06.647Z,100535.72
2022-10-15T06:17:38.307Z,100536.28
2022-10-15T06:18:10.909Z,100533.63
2022-10-15T06:18:42.386Z,100536.06
2022-10-15T06:19:15.216Z,100542.44
2022-10-15T06:19:46.700Z,100538.72
2022-10-15T06:20:18.644Z,100536.69
2022-10-15T06:20:53.284Z,100543.41
2022-10-15T06:21:25.155Z,100543.41
2022-10-15T06:21:56.632Z,100541.56
2022-10-15T06:22:31.163Z,100535.44
2022-10-15T06:23:05.001Z,100540.75
2022-10-15T06:23:36.933Z,100540.53
2022-10-15T06:24:10.063Z,100541.94
2022-10-15T06:24:41.970Z,100542.28
2022-10-15T06:25:14.793Z,100538.22
2022-10-15T06:25:46.504Z,100539.63
2022-10-15T06:26:18.126Z,100541.50
2022-10-15T06:26:52.747Z,100534.09
2022-10-15T06:27:24.497Z,100532.47
2022-10-15T06:27:56.246Z,100534.09
2022-10-15T06:28:32.262Z,100530.38
2022-10-15T06:29:03.934Z,100534.69
2022-10-15T06:29:35.562Z,100537.47
2022-10-15T06:30:08.671Z,100534.81
2022-10-15T06:30:40.223Z,100534.00
2022-10-15T06:31:12.335Z,100534.81
2022-10-15T06:31:43.894Z,100535.63
2022-10-15T06:32:15.371Z,100539.09
2022-10-15T06:32:51.241Z,100540.72
2022-10-15T06:33:22.705Z,100540.72
2022-10-15T06:33:54.179Z,100533.91
2022-10-15T06:34:25.662Z,100535.97
2022-10-15T06:34:57.144Z,100531.47
2022-10-15T06:35:33.395Z,100532.28
2022-10-15T06:36:07.255Z,100530.22
2022-10-15T06:36:38.725Z,100529.41
2022-10-15T06:37:10.420Z,100532.88
2022-10-15T06:37:41.867Z,100528.16
2022-10-15T06:38:13.313Z,100535.94
2022-10-15T06:38:47.519Z,100532.22
2022-10-15T06:39:19.135Z,100526.91
2022-10-15T06:39:50.707Z,100533.03
2022-10-15T06:40:22.153Z,100535.25
2022-10-15T06:40:53.644Z,100534.22
2022-10-15T06:41:25.297Z,100533.41
2022-10-15T06:41:57.019Z,100535.84
2022-10-15T06:42:34.819Z,100533.75
2022-10-15T06:43:10.866Z,100538.03
2022-10-15T06:43:42.748Z,100531.09
2022-10-15T06:44:14.492Z,100531.69
2022-10-15T06:44:45.938Z,100536.78
2022-10-15T06:45:21.888Z,100533.06
2022-10-15T06:45:53.514Z,100540.84
2022-10-15T06:46:25.007Z,100540.63
2022-10-15T06:46:56.728Z,100535.06
2022-10-15T06:47:28.186Z,100539.94
2022-10-15T06:47:59.639Z,100533.22
2022-10-15T06:48:31.312Z,100533.16
2022-10-15T06:49:02.915Z,100537.63
2022-10-15T06:49:34.371Z,100537.84
2022-10-15T06:50:06.763Z,100539.72
2022-10-15T06:50:39.215Z,100534.16
2022-10-15T06:51:11.267Z,100532.09
2022-10-15T06:51:42.770Z,100538.00
2022-10-15T06:52:14.235Z,100531.06
2022-10-15T06:52:45.779Z,100532.69
2022-10-15T06:53:17.583Z,100536.16
2022-10-15T06:53:49.083Z,100535.94
2022-10-15T06:54:20.599Z,100533.50
2022-10-15T06:54:52.420Z,100543.94
2022-10-15T06:55:26.312Z,100543.72
2022-10-15T06:55:58.551Z,100546.13
2022-10-15T06:56:30.006Z,100542.44
2022-10-15T06:57:01.456Z,100537.09
2022-10-15T06:57:32.946Z,100535.47
2022-10-15T06:58:04.398Z,100538.16
2022-10-15T06:58:35.867Z,100537.91
2022-10-15T06:59:07.444Z,100546.72
2022-10-15T06:59:41.338Z,100533.41
2022-10-15T07:00:13.980Z,100527.63
2022-10-15T07:00:45.428Z,100534.56
2022-10-15T07:01:17.262Z,100537.22
2022-10-15T07:01:48.697Z,100534.56
2022-10-15T07:02:20.497Z,100538.84
2022-10-15T07:02:52.659Z,100529.59
2022-10-15T07:03:24.196Z,100534.91
2022-10-15T07:03:55.685Z,100543.03
2022-10-15T07:04:27.186Z,100533.53
2022-10-15T07:04:58.647Z,100528.69
2022-10-15T07:05:30.135Z,100538.06
2022-10-15T07:06:03.556Z,100535.41
2022-10-15T07:06:35.750Z,100539.72
2022-10-15T07:07:07.308Z,100536.81
2022-10-15T07:07:39.072Z,100537.06
2022-10-15T07:08:11.584Z,100540.72
2022-10-15T07:08:45.873Z,100541.69
2022-10-15T07:09:17.439Z,100539.50
2022-10-15T07:09:53.116Z,100544.59
2022-10-15T07:10:25.973Z,100538.44
2022-10-15T07:10:57.640Z,100539.84
2022-10-15T07:11:30.557Z,100542.50
2022-10-15T07:12:02.160Z,100534.50
2022-10-15T07:12:34.113Z,100539.16
2022-10-15T07:13:05.575Z,100547.38
2022-10-15T07:13:37.805Z,100549.81
2022-10-15T07:14:10.258Z,100549.81
2022-10-15T07:14:42.565Z,100538.00
2022-10-15T07:15:14.581Z,100550.50
2022-10-15T07:15:47.326Z,100542.28
2022-10-15T07:16:18.810Z,100554.34
2022-10-15T07:16:50.307Z,100547.38
2022-10-15T07:17:21.783Z,100545.31
2022-10-15T07:18:01.245Z,100546.56
2022-10-15T07:18:33.776Z,100548.19
2022-10-15T07:19:05.768Z,100550.88
2022-10-15T07:19:37.282Z,100549.00
2022-10-15T07:20:08.938Z,100552.72
2022-10-15T07:20:40.653Z,100551.09
2022-10-15T07:21:12.144Z,100543.69
2022-10-15T07:21:43.710Z,100553.88
2022-10-15T07:22:16.084Z,100547.38
2022-10-15T07:22:48.756Z,100549.25
2022-10-15T07:23:24.083Z,100551.22
2022-10-15T07:24:00.877Z,100551.09
2022-10-15T07:24:32.974Z,100549.00
2022-10-15T07:25:04.814Z,100559.22
2022-10-15T07:25:36.379Z,100553.88
2022-10-15T07:26:07.951Z,100556.19
2022-10-15T07:26:39.536Z,100555.97
2022-10-15T07:27:18.643Z,100553.88
2022-10-15T07:27:50.922Z,100549.00
2022-10-15T07:28:22.430Z,100557.13
2022-10-15T07:28:53.948Z,100556.56
2022-10-15T07:29:25.454Z,100555.97
2022-10-15T07:29:56.968Z,100554.34
2022-10-15T07:30:28.754Z,100560.63
2022-10-15T07:31:02.387Z,100546.13
2022-10-15T07:31:34.571Z,100552.84
2022-10-15T07:32:06.606Z,100556.31
2022-10-15T07:32:38.269Z,100551.44
2022-10-15T07:33:10.043Z,100553.66
2022-10-15T07:33:42.771Z,100552.63
2022-10-15T07:34:14.283Z,100549.94
2022-10-15T07:34:45.793Z,100547.06
2022-10-15T07:35:17.397Z,100541.72
2022-10-15T07:35:48.923Z,100551.56
2022-10-15T07:36:20.829Z,100545.78
2022-10-15T07:36:52.347Z,100557.03
2022-10-15T07:37:23.818Z,100547.97
2022-10-15T07:37:55.439Z,100555.63